Time;durP1;ratioP1;P1;durP2;ratioP2;P2;SDS_P1;SDS_P2;PMS_P1;PMS_P2;Temp;Humidity;BMP_temperature;BMP_pressure;BME280_temperature;BME280_humidity;BME280_pressure;Samples;Min_cycle;Max_cycle;Signal;HPM_P1;HPM_P2
2021/01/16 00:00:26;;;;;;;12.80;11.48;;;5.10;74.50;;;;;;5067194;28;20064;-84
2021/01/16 00:02:53;;;;;;;14.32;11.43;;;5.10;74.50;;;;;;5066492;28;20040;-86
2021/01/16 00:05:20;;;;;;;15.23;11.65;;;5.10;74.40;;;;;;5065874;28;20036;-85
2021/01/16 00:07:47;;;;;;;13.18;10.98;;;5.20;74.60;;;;;;5049272;28;20033;-89
2021/01/16 00:10:15;;;;;;;15.73;11.00;;;5.20;74.60;;;;;;5065439;28;20513;-89
2021/01/16 00:12:49;;;;;;;12.00;10.70;;;5.20;74.60;;;;;;5048945;28;20032;-80
2021/01/16 00:15:15;;;;;;;15.02;11.15;;;5.20;74.60;;;;;;5049552;28;20029;-88
2021/01/16 00:17:42;;;;;;;13.68;11.35;;;5.20;74.60;;;;;;5045482;28;20120;-83
2021/01/16 00:20:09;;;;;;;14.02;11.60;;;5.30;74.70;;;;;;5044549;28;20086;-81
2021/01/16 00:22:35;;;;;;;11.40;9.82;;;5.30;74.70;;;;;;5046363;28;20025;-86
2021/01/16 00:25:01;;;;;;;12.20;10.43;;;5.30;74.70;;;;;;5045243;28;20128;-83
2021/01/16 00:27:27;;;;;;;12.15;10.48;;;5.30;74.70;;;;;;5046462;28;20127;-84
2021/01/16 00:29:53;;;;;;;14.18;9.70;;;5.40;74.80;;;;;;5046412;28;20029;-85
2021/01/16 00:32:19;;;;;;;11.38;9.38;;;5.40;74.80;;;;;;5028571;28;20033;-82
2021/01/16 00:34:45;;;;;;;12.02;9.98;;;5.40;74.80;;;;;;5037285;28;20025;-84
2021/01/16 00:37:11;;;;;;;10.85;9.68;;;5.40;74.70;;;;;;5061834;28;20054;-83
2021/01/16 00:39:37;;;;;;;12.15;9.82;;;5.50;74.90;;;;;;5046987;28;20087;-87
2021/01/16 00:42:04;;;;;;;10.18;9.13;;;5.50;74.80;;;;;;5028631;28;20222;-88
2021/01/16 00:44:30;;;;;;;11.98;10.50;;;5.50;74.80;;;;;;5045544;28;20155;-86
2021/01/16 00:46:56;;;;;;;10.18;8.88;;;5.50;74.80;;;;;;5046774;28;20259;-90
2021/01/16 00:49:22;;;;;;;11.35;8.90;;;5.50;74.80;;;;;;5057064;28;20518;-85
2021/01/16 00:51:48;;;;;;;11.20;9.05;;;5.50;74.80;;;;;;5048604;28;20025;-88
2021/01/16 00:54:15;;;;;;;13.02;10.27;;;5.50;74.80;;;;;;5060271;28;20048;-86
2021/01/16 00:56:41;;;;;;;9.48;8.32;;;5.60;75.00;;;;;;5066605;28;20032;-82
2021/01/16 00:59:14;;;;;;;12.52;10.15;;;5.60;75.00;;;;;;5054902;28;20126;-86
2021/01/16 01:01:55;;;;;;;8.70;7.88;;;5.60;75.00;;;;;;5045377;28;20526;-84
2021/01/16 01:04:22;;;;;;;9.10;7.93;;;5.60;74.90;;;;;;5053121;28;20364;-89
2021/01/16 01:06:48;;;;;;;10.00;8.55;;;5.60;75.00;;;;;;5048496;28;20471;-88
2021/01/16 01:09:14;;;;;;;8.68;7.72;;;5.60;74.90;;;;;;5064907;28;20028;-84
2021/01/16 01:11:39;;;;;;;9.93;7.40;;;5.70;75.10;;;;;;5065066;28;20033;-82
2021/01/16 01:14:05;;;;;;;8.60;7.70;;;5.70;75.10;;;;;;5058797;28;20082;-85
2021/01/16 01:16:31;;;;;;;12.32;8.25;;;5.70;75.00;;;;;;5045082;28;20128;-84
2021/01/16 01:18:57;;;;;;;8.25;7.30;;;5.70;75.00;;;;;;5044852;28;20104;-86
2021/01/16 01:21:23;;;;;;;11.38;8.55;;;5.70;75.00;;;;;;5045675;28;20145;-84
2021/01/16 01:23:49;;;;;;;11.05;8.45;;;5.70;75.00;;;;;;5046472;28;20032;-84
2021/01/16 01:26:15;;;;;;;9.18;8.20;;;5.80;75.10;;;;;;5044794;28;20095;-87
2021/01/16 01:28:41;;;;;;;12.13;8.32;;;5.80;75.10;;;;;;5044291;28;20045;-88
2021/01/16 01:31:07;;;;;;;12.85;8.50;;;5.80;75.10;;;;;;5045111;28;20128;-86
2021/01/16 01:33:33;;;;;;;10.10;7.72;;;5.80;75.10;;;;;;5027814;28;20143;-86
2021/01/16 01:35:59;;;;;;;8.10;7.18;;;5.80;75.10;;;;;;5047513;28;20115;-85
2021/01/16 01:38:25;;;;;;;8.18;7.35;;;5.90;75.20;;;;;;5050794;28;20056;-81
2021/01/16 01:40:51;;;;;;;8.10;7.20;;;5.90;75.20;;;;;;5069718;28;20032;-86
2021/01/16 01:43:17;;;;;;;8.85;7.25;;;5.90;75.20;;;;;;5069660;28;20491;-83
2021/01/16 01:45:43;;;;;;;10.55;7.72;;;5.90;75.20;;;;;;5048965;28;20672;-84
2021/01/16 01:48:11;;;;;;;8.70;7.88;;;5.90;75.20;;;;;;5048958;28;20532;-83
2021/01/16 01:50:37;;;;;;;11.50;7.93;;;5.90;75.10;;;;;;5050858;28;20032;-82
2021/01/16 01:53:04;;;;;;;11.52;8.10;;;5.90;75.10;;;;;;5069270;28;20499;-83
2021/01/16 01:55:32;;;;;;;7.95;7.15;;;6.00;75.30;;;;;;5054424;28;20025;-81
2021/01/16 01:57:59;;;;;;;10.25;7.88;;;6.00;75.30;;;;;;5047417;28;20060;-80
2021/01/16 02:00:27;;;;;;;9.27;7.85;;;6.00;75.30;;;;;;5067003;28;20035;-82
2021/01/16 02:02:54;;;;;;;8.30;7.45;;;6.00;75.20;;;;;;5066450;28;20077;-82
2021/01/16 02:05:20;;;;;;;9.07;7.75;;;6.00;75.20;;;;;;5067731;28;20167;-80
2021/01/16 02:07:46;;;;;;;10.65;8.05;;;6.00;75.20;;;;;;5066395;28;20028;-82
2021/01/16 02:10:24;;;;;;;8.77;7.80;;;6.00;75.20;;;;;;5049184;28;20028;-84
2021/01/16 02:12:55;;;;;;;8.65;7.85;;;6.00;75.20;;;;;;5048689;28;20033;-83
2021/01/16 02:15:27;;;;;;;9.07;8.20;;;6.00;75.20;;;;;;5064321;28;20029;-82
2021/01/16 02:18:02;;;;;;;9.77;8.70;;;6.00;75.20;;;;;;5067599;28;20154;-83
2021/01/16 02:20:33;;;;;;;10.13;8.80;;;6.00;75.20;;;;;;5049513;28;20189;-80
2021/01/16 02:23:11;;;;;;;10.63;8.88;;;6.00;75.20;;;;;;5067017;28;20040;-82
2021/01/16 02:25:40;;;;;;;10.70;8.80;;;6.10;75.40;;;;;;5066478;28;20340;-81
2021/01/16 02:28:08;;;;;;;12.50;9.10;;;6.10;75.40;;;;;;5066377;28;20082;-84
2021/01/16 02:30:45;;;;;;;13.18;9.35;;;6.10;75.40;;;;;;5067790;28;20124;-80
2021/01/16 02:33:15;;;;;;;10.85;9.23;;;6.10;75.40;;;;;;5051978;28;20067;-79
2021/01/16 02:36:16;;;;;;;12.65;9.90;;;6.10;75.30;;;;;;5067892;28;20524;-80
2021/01/16 02:39:12;;;;;;;10.43;9.32;;;6.10;75.30;;;;;;5063234;28;21070;-80
2021/01/16 02:41:57;;;;;;;12.48;8.95;;;6.10;75.30;;;;;;5046634;28;20094;-80
2021/01/16 02:44:33;;;;;;;11.80;9.10;;;6.10;75.30;;;;;;5048366;28;20029;-80
2021/01/16 02:47:13;;;;;;;13.00;10.13;;;6.10;75.30;;;;;;5063086;28;20036;-78
2021/01/16 02:50:00;;;;;;;12.80;9.40;;;6.10;75.30;;;;;;5072061;28;20037;-79
2021/01/16 02:52:29;;;;;;;12.65;10.23;;;6.10;75.30;;;;;;5071248;28;20499;-82
2021/01/16 02:54:56;;;;;;;13.05;9.57;;;6.10;75.30;;;;;;5063024;28;20033;-80
2021/01/16 02:57:23;;;;;;;11.73;10.52;;;6.10;75.30;;;;;;5049714;28;20032;-81
2021/01/16 02:59:48;;;;;;;13.07;10.40;;;6.10;75.30;;;;;;5051851;28;20376;-81
2021/01/16 03:02:16;;;;;;;11.00;9.90;;;6.10;75.40;;;;;;5049703;28;20021;-83
2021/01/16 03:04:43;;;;;;;12.15;9.45;;;6.10;75.30;;;;;;5050696;28;20127;-79
2021/01/16 03:07:11;;;;;;;14.82;10.38;;;6.10;75.30;;;;;;5050096;28;20067;-80
2021/01/16 03:09:39;;;;;;;11.18;9.68;;;6.10;75.30;;;;;;5034009;28;20025;-82
2021/01/16 03:12:06;;;;;;;11.95;10.38;;;6.10;75.30;;;;;;5051244;28;20443;-81
2021/01/16 03:14:53;;;;;;;13.00;10.10;;;6.10;75.40;;;;;;5050629;28;20036;-82
2021/01/16 03:17:25;;;;;;;12.77;9.65;;;6.10;75.40;;;;;;5050134;28;20037;-81
2021/01/16 03:19:51;;;;;;;11.63;10.10;;;6.10;75.30;;;;;;5050273;28;20029;-81
2021/01/16 03:22:25;;;;;;;10.77;9.68;;;6.10;75.30;;;;;;5051509;28;20081;-82
2021/01/16 03:24:57;;;;;;;12.02;9.18;;;6.20;75.50;;;;;;5049886;28;20479;-82
2021/01/16 03:27:25;;;;;;;13.98;10.45;;;6.20;75.50;;;;;;5050802;28;20277;-82
2021/01/16 03:29:53;;;;;;;10.23;9.18;;;6.20;75.50;;;;;;5051339;28;20039;-83
2021/01/16 03:32:20;;;;;;;12.25;8.93;;;6.10;75.30;;;;;;5033949;28;20033;-83
2021/01/16 03:34:47;;;;;;;11.48;9.00;;;6.20;75.50;;;;;;5050140;28;20128;-83
2021/01/16 03:37:15;;;;;;;13.45;9.80;;;6.20;75.50;;;;;;5051707;28;20035;-82
2021/01/16 03:39:41;;;;;;;11.25;9.30;;;6.20;75.50;;;;;;5050527;28;20493;-82
2021/01/16 03:42:08;;;;;;;9.68;8.68;;;6.20;75.50;;;;;;5050952;28;20032;-82
2021/01/16 03:44:35;;;;;;;12.13;8.68;;;6.20;75.50;;;;;;5049782;28;20037;-82
2021/01/16 03:47:01;;;;;;;10.55;9.55;;;6.20;75.50;;;;;;5016162;28;20187;-81
2021/01/16 03:49:27;;;;;;;9.05;8.15;;;6.20;75.50;;;;;;5051385;28;20036;-81
2021/01/16 03:51:54;;;;;;;9.93;8.90;;;6.20;75.50;;;;;;5049445;28;20028;-82
2021/01/16 03:54:19;;;;;;;9.45;8.55;;;6.20;75.50;;;;;;5052806;28;20036;-82
2021/01/16 03:56:46;;;;;;;10.00;8.98;;;6.20;75.50;;;;;;5070945;28;20036;-83
2021/01/16 03:59:11;;;;;;;10.70;8.25;;;6.20;75.50;;;;;;5052169;28;20067;-83
2021/01/16 04:01:38;;;;;;;12.93;9.07;;;6.20;75.50;;;;;;5069635;28;20443;-81
2021/01/16 04:04:04;;;;;;;9.57;8.60;;;6.20;75.50;;;;;;5071830;28;20029;-83
2021/01/16 04:06:30;;;;;;;10.23;8.55;;;6.20;75.50;;;;;;5072258;28;20051;-78
2021/01/16 04:08:56;;;;;;;11.40;8.88;;;6.20;75.50;;;;;;5071483;28;20134;-80
2021/01/16 04:11:22;;;;;;;11.35;8.85;;;6.20;75.50;;;;;;5071744;28;20483;-83
2021/01/16 04:13:48;;;;;;;10.32;8.18;;;6.20;75.50;;;;;;5071133;28;20056;-81
2021/01/16 04:16:14;;;;;;;10.20;8.18;;;6.20;75.50;;;;;;5069530;28;20070;-84
2021/01/16 04:18:41;;;;;;;9.57;8.15;;;6.20;75.50;;;;;;5069346;28;20052;-83
2021/01/16 04:21:07;;;;;;;9.55;7.90;;;6.20;75.50;;;;;;5070761;28;20050;-85
2021/01/16 04:23:32;;;;;;;11.10;8.85;;;6.20;75.50;;;;;;5069699;28;20466;-83
2021/01/16 04:25:59;;;;;;;10.45;8.10;;;6.20;75.50;;;;;;5071173;28;20107;-84
2021/01/16 04:28:25;;;;;;;8.55;7.75;;;6.20;75.50;;;;;;5070402;28;20031;-81
2021/01/16 04:30:51;;;;;;;9.13;8.07;;;6.20;75.50;;;;;;5070052;28;20383;-85
2021/01/16 04:33:17;;;;;;;9.13;7.57;;;6.20;75.50;;;;;;5069305;28;20028;-82
2021/01/16 04:35:43;;;;;;;8.55;7.65;;;6.20;75.50;;;;;;5069391;28;20364;-84
2021/01/16 04:38:10;;;;;;;9.70;7.40;;;6.20;75.50;;;;;;5069251;28;20123;-85
2021/01/16 04:40:36;;;;;;;12.23;8.18;;;6.20;75.50;;;;;;5070249;28;20028;-83
2021/01/16 04:43:04;;;;;;;11.00;8.40;;;6.20;75.50;;;;;;5070124;28;20051;-85
2021/01/16 04:45:31;;;;;;;8.07;7.28;;;6.20;75.50;;;;;;5070540;28;20028;-81
2021/01/16 04:48:00;;;;;;;8.95;7.78;;;6.20;75.50;;;;;;5068989;28;20060;-83
2021/01/16 04:50:30;;;;;;;7.63;6.88;;;6.30;75.70;;;;;;5070576;28;20112;-83
2021/01/16 04:53:08;;;;;;;7.55;6.82;;;6.30;75.70;;;;;;5052548;28;20509;-85
2021/01/16 04:55:37;;;;;;;7.38;6.68;;;6.30;75.60;;;;;;5055444;28;20106;-83
2021/01/16 04:58:04;;;;;;;9.02;7.38;;;6.30;75.60;;;;;;5049209;28;20048;-85
2021/01/16 05:00:33;;;;;;;7.32;6.63;;;6.30;75.60;;;;;;5032269;28;20070;-87
2021/01/16 05:03:07;;;;;;;8.88;7.00;;;6.30;75.60;;;;;;5049155;28;20321;-80
2021/01/16 05:05:38;;;;;;;8.45;7.15;;;6.30;75.60;;;;;;5032602;28;20052;-83
2021/01/16 05:08:05;;;;;;;8.25;7.07;;;6.30;75.60;;;;;;5049060;28;20029;-82
2021/01/16 05:10:37;;;;;;;7.38;6.18;;;6.40;75.80;;;;;;5052982;28;20120;-82
2021/01/16 05:13:11;;;;;;;11.68;6.70;;;6.40;75.80;;;;;;5053072;28;20025;-84
2021/01/16 05:15:46;;;;;;;8.88;7.00;;;6.40;76.30;;;;;;5052791;28;20394;-82
2021/01/16 05:18:14;;;;;;;8.70;6.05;;;6.40;75.80;;;;;;5052090;28;20036;-79
2021/01/16 05:20:45;;;;;;;6.53;5.93;;;6.40;75.80;;;;;;5053479;28;20033;-80
2021/01/16 05:23:11;;;;;;;7.47;6.25;;;6.40;75.80;;;;;;5051904;28;20029;-78
2021/01/16 05:25:52;;;;;;;6.30;5.70;;;6.40;75.80;;;;;;5052388;28;20025;-81
2021/01/16 05:28:20;;;;;;;7.82;6.75;;;6.40;75.80;;;;;;5053513;28;20116;-83
2021/01/16 05:30:47;;;;;;;7.32;6.05;;;6.40;75.80;;;;;;5053113;28;20106;-81
2021/01/16 05:33:13;;;;;;;6.38;5.78;;;6.50;76.00;;;;;;5053677;28;20036;-79
2021/01/16 05:35:39;;;;;;;6.40;5.80;;;6.50;75.90;;;;;;5052241;28;20029;-80
2021/01/16 05:38:07;;;;;;;6.78;6.05;;;6.50;75.90;;;;;;5051516;28;20029;-81
2021/01/16 05:40:34;;;;;;;7.47;6.00;;;6.50;75.90;;;;;;5053235;28;20043;-82
2021/01/16 05:43:00;;;;;;;6.45;5.53;;;6.50;75.90;;;;;;5052893;28;20083;-82
2021/01/16 05:45:28;;;;;;;6.78;6.18;;;6.50;75.90;;;;;;5053188;28;20579;-80
2021/01/16 05:47:54;;;;;;;6.18;5.63;;;6.50;75.90;;;;;;5051868;28;20496;-81
2021/01/16 05:50:23;;;;;;;5.80;5.20;;;6.50;75.90;;;;;;5049425;28;20475;-81
2021/01/16 05:52:50;;;;;;;7.82;5.53;;;6.60;76.10;;;;;;5064940;28;20040;-80
2021/01/16 05:55:17;;;;;;;6.35;4.65;;;6.60;76.10;;;;;;5068544;28;20021;-80
2021/01/16 05:57:47;;;;;;;6.15;5.13;;;6.60;76.10;;;;;;5069529;28;20045;-79
2021/01/16 06:00:24;;;;;;;5.88;5.38;;;6.60;76.10;;;;;;5051329;28;20032;-79
2021/01/16 06:02:54;;;;;;;6.20;4.88;;;6.60;76.10;;;;;;5064959;28;20037;-79
2021/01/16 06:05:24;;;;;;;7.53;5.45;;;6.60;76.10;;;;;;5048242;28;20517;-80
2021/01/16 06:07:54;;;;;;;5.97;4.63;;;6.60;76.00;;;;;;5050862;28;20305;-80
2021/01/16 06:10:21;;;;;;;5.22;4.63;;;6.70;76.20;;;;;;5067964;28;20489;-84
2021/01/16 06:12:49;;;;;;;5.18;4.68;;;6.70;76.20;;;;;;5066742;28;20483;-80
2021/01/16 06:15:20;;;;;;;5.45;4.82;;;6.70;76.20;;;;;;5047147;28;20032;-78
2021/01/16 06:17:50;;;;;;;5.65;5.15;;;6.70;76.30;;;;;;5048619;28;20241;-84
2021/01/16 06:20:22;;;;;;;4.53;4.13;;;6.70;76.20;;;;;;5047926;28;20025;-83
2021/01/16 06:22:51;;;;;;;5.30;4.28;;;6.70;76.20;;;;;;5050577;28;20444;-79
2021/01/16 06:25:20;;;;;;;4.00;3.55;;;6.70;76.20;;;;;;5069858;28;20364;-81
2021/01/16 06:27:47;;;;;;;4.57;4.18;;;6.80;76.40;;;;;;5066644;28;20056;-83
2021/01/16 06:30:16;;;;;;;4.38;3.97;;;6.80;76.40;;;;;;5048925;28;20036;-84
2021/01/16 06:32:48;;;;;;;4.88;4.18;;;6.80;76.40;;;;;;5048258;28;20025;-82
2021/01/16 06:35:15;;;;;;;5.20;3.97;;;6.80;76.30;;;;;;5066988;28;20099;-85
2021/01/16 06:37:51;;;;;;;4.22;3.72;;;6.80;76.30;;;;;;5066770;28;20350;-79
2021/01/16 06:40:29;;;;;;;4.57;4.15;;;6.90;76.50;;;;;;5067506;28;20062;-85
2021/01/16 06:42:56;;;;;;;3.88;3.20;;;6.90;76.50;;;;;;5063388;28;20037;-83
2021/01/16 06:45:27;;;;;;;5.85;3.20;;;6.90;76.50;;;;;;5046730;28;20079;-81
2021/01/16 06:48:00;;;;;;;4.05;3.65;;;6.90;76.50;;;;;;5049239;28;20131;-82
2021/01/16 06:50:28;;;;;;;3.90;3.58;;;6.90;76.50;;;;;;5066291;28;20029;-80
2021/01/16 06:52:54;;;;;;;3.42;3.13;;;7.00;76.70;;;;;;5066458;28;20028;-80
2021/01/16 06:55:21;;;;;;;3.58;3.28;;;7.00;76.70;;;;;;5056366;28;20021;-78
2021/01/16 06:57:47;;;;;;;5.68;3.70;;;7.00;76.70;;;;;;5046222;28;20048;-75
2021/01/16 07:00:16;;;;;;;3.58;3.15;;;7.00;76.70;;;;;;5045028;28;20029;-77
2021/01/16 07:02:46;;;;;;;3.28;2.97;;;7.10;77.10;;;;;;5046455;28;20345;-76
2021/01/16 07:05:22;;;;;;;3.83;3.38;;;7.10;77.40;;;;;;5061997;28;20204;-75
2021/01/16 07:07:51;;;;;;;8.00;3.95;;;7.30;77.70;;;;;;5047987;28;20361;-76
2021/01/16 07:10:30;;;;;;;3.65;2.95;;;7.30;77.60;;;;;;5065446;28;20509;-78
2021/01/16 07:12:59;;;;;;;5.78;3.55;;;7.40;77.80;;;;;;5064310;28;20032;-79
2021/01/16 07:15:29;;;;;;;4.93;3.30;;;7.50;78.00;;;;;;5065079;28;20036;-80
2021/01/16 07:17:55;;;;;;;5.70;2.97;;;7.50;78.00;;;;;;5062320;28;20140;-78
2021/01/16 07:20:23;;;;;;;3.05;2.20;;;7.60;78.20;;;;;;5044511;28;20035;-84
2021/01/16 07:22:52;;;;;;;2.70;2.50;;;7.70;78.50;;;;;;5046693;28;20044;-79
2021/01/16 07:25:20;;;;;;;3.08;2.22;;;7.70;78.60;;;;;;5046508;28;20061;-80
2021/01/16 07:27:47;;;;;;;3.20;2.45;;;7.80;78.90;;;;;;5048009;28;20063;-76
2021/01/16 07:30:15;;;;;;;3.22;2.10;;;7.80;78.90;;;;;;5066617;28;20090;-81
2021/01/16 07:32:49;;;;;;;4.88;2.42;;;7.90;79.20;;;;;;5065994;28;20029;-77
2021/01/16 07:35:16;;;;;;;;;;;7.90;79.30;;;;;;5050176;28;20392;-76
2021/01/16 07:37:49;;;;;;;2.15;1.95;;;8.00;79.40;;;;;;5065030;28;19926;-78
2021/01/16 07:40:21;;;;;;;3.17;1.95;;;8.00;79.30;;;;;;5046160;28;20184;-77
2021/01/16 07:42:53;;;;;;;2.15;1.80;;;8.00;79.40;;;;;;5046062;28;20387;-76
2021/01/16 07:45:29;;;;;;;2.40;1.65;;;8.10;79.70;;;;;;5044531;28;20043;-78
2021/01/16 07:48:00;;;;;;;2.30;2.00;;;8.10;79.90;;;;;;5049577;28;20044;-80
2021/01/16 07:50:30;;;;;;;1.70;1.60;;;8.20;80.10;;;;;;5050770;28;20021;-77
2021/01/16 07:53:07;;;;;;;1.75;1.50;;;8.20;80.20;;;;;;5054622;28;20029;-80
2021/01/16 07:55:35;;;;;;;3.08;1.65;;;8.30;80.50;;;;;;5058030;28;20430;-76
2021/01/16 07:58:32;;;;;;;1.75;1.65;;;8.30;80.50;;;;;;5058555;28;20092;-76
2021/01/16 08:01:17;;;;;;;1.67;1.30;;;8.40;80.80;;;;;;5043196;28;20059;-77
2021/01/16 08:04:21;;;;;;;2.05;1.52;;;8.40;80.90;;;;;;5053274;28;20454;-77
2021/01/16 08:07:08;;;;;;;1.25;1.15;;;8.50;81.10;;;;;;5059562;28;20475;-77
2021/01/16 08:09:49;;;;;;;2.83;1.20;;;8.50;81.10;;;;;;5044402;28;20040;-77
2021/01/16 08:12:17;;;;;;;2.35;1.45;;;8.60;81.30;;;;;;5043431;28;20064;-77
2021/01/16 08:14:43;;;;;;;1.75;1.55;;;8.60;81.30;;;;;;5060410;28;20086;-77
2021/01/16 08:17:27;;;;;;;2.20;1.30;;;8.60;81.30;;;;;;5065780;28;20476;-79
2021/01/16 08:20:17;;;;;;;1.63;1.50;;;8.70;81.60;;;;;;5044541;28;20094;-78
2021/01/16 08:22:51;;;;;;;1.63;1.27;;;8.70;81.70;;;;;;5044653;28;20248;-76
2021/01/16 08:25:24;;;;;;;1.85;1.48;;;8.80;81.80;;;;;;5044700;28;20108;-77
2021/01/16 08:27:52;;;;;;;1.58;1.35;;;8.80;81.90;;;;;;5047723;28;20033;-78
2021/01/16 08:30:21;;;;;;;1.13;1.13;;;8.90;82.10;;;;;;5053506;28;20464;-77
2021/01/16 08:32:55;;;;;;;2.58;1.40;;;8.90;82.20;;;;;;5062859;28;20174;-77
2021/01/16 08:35:37;;;;;;;2.45;1.50;;;9.00;82.50;;;;;;5064567;28;20513;-78
2021/01/16 08:38:18;;;;;;;1.42;1.33;;;9.00;82.40;;;;;;5065251;28;20040;-78
2021/01/16 08:41:06;;;;;;;1.42;1.20;;;9.00;82.40;;;;;;5064226;28;20051;-77
2021/01/16 08:43:57;;;;;;;1.63;1.27;;;9.00;82.30;;;;;;5047990;28;20152;-77
2021/01/16 08:46:35;;;;;;;2.90;1.40;;;9.10;82.60;;;;;;5053300;28;20129;-76
2021/01/16 08:49:14;;;;;;;1.75;1.23;;;9.10;82.50;;;;;;5060738;28;20413;-75
2021/01/16 08:51:44;;;;;;;2.50;1.30;;;9.10;82.50;;;;;;5052518;28;20032;-76
2021/01/16 08:54:16;;;;;;;1.30;1.20;;;9.10;82.50;;;;;;5067070;28;20104;-75
2021/01/16 08:57:05;;;;;;;1.50;1.20;;;9.10;82.60;;;;;;5050205;28;20554;-75
2021/01/16 08:59:33;;;;;;;1.77;1.30;;;9.10;82.60;;;;;;5044579;28;20423;-76
2021/01/16 09:02:12;;;;;;;3.03;1.30;;;9.10;82.50;;;;;;5065518;28;20028;-76
2021/01/16 09:04:40;;;;;;;1.40;1.30;;;9.20;82.70;;;;;;5051425;28;20463;-76
2021/01/16 09:07:18;;;;;;;1.77;1.27;;;9.10;82.40;;;;;;5064392;28;20037;-76
2021/01/16 09:09:56;;;;;;;1.10;1.10;;;9.20;82.70;;;;;;5052999;28;20033;-76
2021/01/16 09:12:40;;;;;;;1.70;1.10;;;9.20;82.60;;;;;;5053333;28;20040;-77
2021/01/16 09:15:21;;;;;;;1.00;1.00;;;9.20;82.60;;;;;;5052982;28;20036;-77
2021/01/16 09:18:10;;;;;;;1.15;1.05;;;9.20;82.60;;;;;;5066115;28;20090;-75
2021/01/16 09:20:39;;;;;;;2.83;1.30;;;9.20;82.60;;;;;;5032848;28;20025;-75
2021/01/16 09:23:30;;;;;;;1.85;1.58;;;9.30;82.70;;;;;;5052898;28;20033;-78
2021/01/16 09:26:12;;;;;;;2.92;1.73;;;9.30;82.80;;;;;;5069611;28;20040;-76
2021/01/16 09:28:49;;;;;;;1.75;1.35;;;9.30;82.80;;;;;;5070781;28;20032;-77
2021/01/16 09:31:15;;;;;;;3.30;1.75;;;9.30;82.70;;;;;;5070964;28;20036;-75
2021/01/16 09:33:43;;;;;;;4.47;1.83;;;9.40;82.80;;;;;;5071127;28;20483;-76
2021/01/16 09:36:09;;;;;;;2.28;1.80;;;9.40;82.90;;;;;;5067715;28;20047;-77
2021/01/16 09:38:37;;;;;;;3.22;1.40;;;9.40;82.80;;;;;;5059305;28;20036;-77
2021/01/16 09:41:03;;;;;;;2.83;1.90;;;9.50;82.90;;;;;;5055333;28;20125;-80
2021/01/16 09:43:38;;;;;;;3.20;1.48;;;9.50;82.80;;;;;;5057776;28;20024;-76
2021/01/16 09:46:04;;;;;;;5.05;2.35;;;9.50;82.80;;;;;;5069804;28;20045;-79
2021/01/16 09:48:30;;;;;;;3.58;1.83;;;9.50;82.70;;;;;;5066412;28;20584;-76
2021/01/16 09:51:02;;;;;;;7.78;2.45;;;9.60;82.80;;;;;;5063840;28;20032;-76
2021/01/16 09:53:28;;;;;;;9.25;3.65;;;9.60;82.80;;;;;;5061628;28;20501;-78
2021/01/16 09:55:55;;;;;;;10.07;2.97;;;9.70;83.20;;;;;;5065683;28;20037;-78
2021/01/16 09:58:28;;;;;;;9.98;2.65;;;9.80;83.70;;;;;;5060158;28;20174;-89
2021/01/16 10:01:12;;;;;;;20.73;3.33;;;10.00;84.10;;;;;;5056472;28;20507;-83
2021/01/16 10:03:39;;;;;;;14.90;3.83;;;10.10;84.00;;;;;;5065333;28;20029;-86
2021/01/16 10:06:07;;;;;;;10.18;3.60;;;10.30;84.10;;;;;;5047770;28;20563;-85
2021/01/16 10:08:33;;;;;;;9.07;3.58;;;10.40;84.20;;;;;;5018601;28;20049;-85
2021/01/16 10:11:03;;;;;;;10.60;3.22;;;10.40;84.10;;;;;;5066819;28;20036;-85
2021/01/16 10:13:35;;;;;;;10.13;3.47;;;10.50;84.30;;;;;;5061395;28;20049;-83
2021/01/16 10:16:03;;;;;;;7.25;2.80;;;10.50;84.90;;;;;;5047600;28;20028;-83
2021/01/16 10:18:31;;;;;;;18.08;4.43;;;10.40;84.20;;;;;;5034228;28;20056;-84
2021/01/16 10:21:20;;;;;;;9.45;3.35;;;10.50;84.50;;;;;;5062501;28;20624;-83
2021/01/16 10:23:45;;;;;;;10.85;3.92;;;10.50;84.60;;;;;;5047358;28;20033;-83
2021/01/16 10:26:15;;;;;;;13.57;4.57;;;10.50;84.50;;;;;;5045745;28;20032;-81
2021/01/16 10:29:04;;;;;;;7.28;3.20;;;10.50;84.60;;;;;;5047458;28;20055;-84
2021/01/16 10:31:30;;;;;;;8.27;3.38;;;10.50;84.70;;;;;;5045812;28;20064;-82
2021/01/16 10:34:07;;;;;;;7.65;3.53;;;10.50;84.60;;;;;;5056236;28;20386;-82
2021/01/16 10:36:34;;;;;;;4.70;2.67;;;10.50;84.70;;;;;;5067567;28;20037;-83
2021/01/16 10:39:09;;;;;;;8.80;3.67;;;10.50;84.70;;;;;;5038298;28;20541;-84
2021/01/16 10:41:37;;;;;;;5.65;2.35;;;10.40;84.60;;;;;;5047894;28;20075;-84
2021/01/16 10:44:06;;;;;;;12.35;3.25;;;10.50;84.80;;;;;;5040738;28;20025;-89
2021/01/16 10:46:46;;;;;;;5.28;2.60;;;10.50;84.80;;;;;;5064196;28;20105;-85
2021/01/16 10:49:17;;;;;;;9.98;3.47;;;10.50;84.80;;;;;;5046865;28;20048;-83
2021/01/16 10:51:51;;;;;;;6.65;2.95;;;10.50;84.80;;;;;;5063735;28;20159;-86
2021/01/16 10:54:18;;;;;;;4.45;2.55;;;10.50;84.80;;;;;;5063291;28;20021;-85
2021/01/16 10:57:08;;;;;;;7.88;3.63;;;10.50;84.80;;;;;;5047881;28;20104;-82
2021/01/16 10:59:52;;;;;;;8.13;2.42;;;10.50;84.80;;;;;;5063570;28;20041;-85
2021/01/16 11:02:18;;;;;;;7.97;3.10;;;10.50;84.80;;;;;;5067006;28;20029;-84
2021/01/16 11:04:47;;;;;;;7.38;3.22;;;10.50;85.30;;;;;;5047466;28;20442;-84
2021/01/16 11:07:30;;;;;;;4.75;2.30;;;10.50;84.70;;;;;;5048055;28;20024;-86
2021/01/16 11:10:03;;;;;;;7.70;2.40;;;10.60;84.90;;;;;;5048156;28;20100;-88
2021/01/16 11:12:30;;;;;;;4.60;2.20;;;10.60;84.90;;;;;;5046452;28;20128;-82
2021/01/16 11:14:56;;;;;;;8.90;2.63;;;10.60;84.80;;;;;;5044975;28;20040;-85
2021/01/16 11:17:46;;;;;;;3.85;2.08;;;10.60;84.90;;;;;;5062615;28;20232;-82
2021/01/16 11:20:20;;;;;;;6.32;2.42;;;10.60;84.80;;;;;;5062860;28;20041;-84
2021/01/16 11:23:06;;;;;;;9.25;2.38;;;10.60;84.80;;;;;;5063764;28;20032;-78
2021/01/16 11:25:42;;;;;;;6.28;2.88;;;10.60;84.80;;;;;;5042434;28;20625;-81
2021/01/16 11:28:10;;;;;;;7.22;2.03;;;10.70;84.90;;;;;;5045286;28;20254;-81
2021/01/16 11:31:03;;;;;;;5.90;2.42;;;10.70;84.80;;;;;;5044834;28;20488;-84
2021/01/16 11:33:29;;;;;;;7.23;2.53;;;10.70;84.80;;;;;;5046295;28;20424;-84
2021/01/16 11:36:10;;;;;;;5.63;2.47;;;10.70;84.80;;;;;;5066512;28;20028;-87
2021/01/16 11:38:39;;;;;;;12.18;2.40;;;10.70;84.70;;;;;;5044205;28;20095;-81
2021/01/16 11:41:05;;;;;;;6.57;2.17;;;10.70;84.70;;;;;;5044241;28;20113;-80
2021/01/16 11:43:31;;;;;;;6.82;2.63;;;10.80;84.80;;;;;;5061236;28;20021;-80
2021/01/16 11:46:25;;;;;;;10.30;3.10;;;10.80;84.80;;;;;;5044093;28;20435;-78
2021/01/16 11:48:51;;;;;;;6.22;3.40;;;10.80;84.80;;;;;;5041155;28;20045;-84
2021/01/16 11:51:19;;;;;;;10.00;3.15;;;10.80;84.80;;;;;;5046226;28;20441;-84
2021/01/16 11:53:50;;;;;;;8.63;3.67;;;10.90;84.90;;;;;;5045417;28;20065;-82
2021/01/16 11:56:20;;;;;;;11.32;3.65;;;10.90;84.90;;;;;;5046037;28;20028;-83
2021/01/16 11:58:48;;;;;;;6.07;3.17;;;10.90;84.90;;;;;;5047127;28;20036;-83
2021/01/16 12:01:15;;;;;;;8.55;3.97;;;11.00;85.10;;;;;;5048374;28;20043;-83
2021/01/16 12:03:42;;;;;;;8.68;3.47;;;11.10;85.20;;;;;;5058018;28;20033;-89
2021/01/16 12:06:14;;;;;;;8.13;3.38;;;11.10;85.10;;;;;;5028788;28;20061;-81
2021/01/16 12:08:45;;;;;;;6.60;3.30;;;11.20;85.20;;;;;;5042385;28;20033;-83
2021/01/16 12:11:13;;;;;;;11.02;3.45;;;11.20;85.20;;;;;;5033061;28;20033;-84
2021/01/16 12:13:40;;;;;;;6.65;3.15;;;11.30;85.20;;;;;;5032672;28;20029;-85
2021/01/16 12:16:11;;;;;;;14.23;5.00;;;11.40;85.30;;;;;;5034411;28;20412;-77
2021/01/16 12:18:37;;;;;;;19.60;7.90;;;11.50;85.40;;;;;;5051947;28;20080;-84
2021/01/16 12:21:04;;;;;;;15.65;8.50;;;11.50;85.40;;;;;;5046247;28;20021;-77
2021/01/16 12:23:46;;;;;;;16.60;7.32;;;11.70;85.80;;;;;;5045564;28;20033;-83
2021/01/16 12:26:15;;;;;;;18.33;7.32;;;11.80;86.00;;;;;;5027517;28;20424;-79
2021/01/16 12:28:49;;;;;;;15.93;7.70;;;11.90;86.00;;;;;;5044117;28;20100;-80
2021/01/16 12:31:25;;;;;;;18.05;7.82;;;11.90;85.90;;;;;;5027212;28;20549;-82
2021/01/16 12:33:53;;;;;;;17.63;8.10;;;12.00;86.00;;;;;;5033735;28;20029;-86
2021/01/16 12:36:20;;;;;;;20.20;8.00;;;12.00;85.90;;;;;;5053136;28;20036;-88
2021/01/16 12:38:52;;;;;;;12.13;6.78;;;12.10;86.10;;;;;;5045658;28;20033;-85
2021/01/16 12:41:23;;;;;;;21.23;8.10;;;12.10;86.10;;;;;;5047281;28;20384;-88
2021/01/16 12:43:50;;;;;;;12.68;5.82;;;12.10;86.00;;;;;;5049667;28;20029;-90
2021/01/16 12:46:22;;;;;;;16.33;6.15;;;12.20;86.10;;;;;;5066400;28;20044;-85
2021/01/16 12:48:49;;;;;;;13.18;6.15;;;12.20;86.10;;;;;;5055774;28;20029;-87
2021/01/16 12:51:15;;;;;;;15.85;6.20;;;12.30;86.20;;;;;;5029506;28;20025;-88
2021/01/16 12:53:47;;;;;;;18.67;6.50;;;12.30;86.00;;;;;;5047265;28;20029;-82
2021/01/16 12:56:18;;;;;;;12.73;5.28;;;12.40;86.10;;;;;;5043767;28;20033;-85
2021/01/16 12:58:46;;;;;;;16.27;5.53;;;12.40;86.00;;;;;;5064853;28;20037;-85
2021/01/16 13:01:13;;;;;;;10.68;4.93;;;12.50;86.00;;;;;;5044336;28;20029;-82
2021/01/16 13:03:39;;;;;;;15.43;5.20;;;12.50;86.00;;;;;;5057500;28;20128;-83
2021/01/16 13:06:07;;;;;;;11.15;3.88;;;12.60;86.00;;;;;;5029018;28;20068;-84
2021/01/16 13:08:33;;;;;;;10.35;4.18;;;12.70;86.00;;;;;;5053914;28;20047;-84